sensor_id;sensor_type;location;lat;lon;timestamp;pressure;altitude;pressure_sealevel;temperature
58929;BMP180;44713;53.378;10.022;2022-10-22T00:02:16;100634.00;;;15.20
58929;BMP180;44713;53.378;10.022;2022-10-22T00:04:46;100646.00;;;15.20
58929;BMP180;44713;53.378;10.022;2022-10-22T00:07:11;100643.00;;;15.20
58929;BMP180;44713;53.378;10.022;2022-10-22T00:09:37;100648.00;;;15.20
58929;BMP180;44713;53.378;10.022;2022-10-22T00:12:02;100646.00;;;15.20
58929;BMP180;44713;53.378;10.022;2022-10-22T00:14:28;100643.00;;;15.20
58929;BMP180;44713;53.378;10.022;2022-10-22T00:16:53;100643.00;;;15.20
58929;BMP180;44713;53.378;10.022;2022-10-22T00:19:19;100643.00;;;15.20
58929;BMP180;44713;53.378;10.022;2022-10-22T00:21:44;100653.00;;;15.20
58929;BMP180;44713;53.378;10.022;2022-10-22T00:24:09;100651.00;;;15.20
58929;BMP180;44713;53.378;10.022;2022-10-22T00:26:35;100648.00;;;15.20
58929;BMP180;44713;53.378;10.022;2022-10-22T00:29:00;100660.00;;;15.30
58929;BMP180;44713;53.378;10.022;2022-10-22T00:31:25;100654.00;;;15.30
58929;BMP180;44713;53.378;10.022;2022-10-22T00:33:51;100659.00;;;15.30
58929;BMP180;44713;53.378;10.022;2022-10-22T00:36:16;100670.00;;;15.30
58929;BMP180;44713;53.378;10.022;2022-10-22T00:38:41;100668.00;;;15.30
58929;BMP180;44713;53.378;10.022;2022-10-22T00:41:07;100666.00;;;15.30
58929;BMP180;44713;53.378;10.022;2022-10-22T00:43:32;100668.00;;;15.30
58929;BMP180;44713;53.378;10.022;2022-10-22T00:45:58;100656.00;;;15.20
58929;BMP180;44713;53.378;10.022;2022-10-22T00:48:26;100657.00;;;15.30
58929;BMP180;44713;53.378;10.022;2022-10-22T00:50:58;100659.00;;;15.20
58929;BMP180;44713;53.378;10.022;2022-10-22T00:53:32;100654.00;;;15.20
58929;BMP180;44713;53.378;10.022;2022-10-22T00:55:59;100648.00;;;15.20
58929;BMP180;44713;53.378;10.022;2022-10-22T00:58:27;100650.00;;;15.20
58929;BMP180;44713;53.378;10.022;2022-10-22T01:00:54;100648.00;;;15.20
58929;BMP180;44713;53.378;10.022;2022-10-22T01:03:19;100655.00;;;15.30
58929;BMP180;44713;53.378;10.022;2022-10-22T01:06:05;100654.00;;;15.30
58929;BMP180;44713;53.378;10.022;2022-10-22T01:11:26;100659.00;;;15.20
58929;BMP180;44713;53.378;10.022;2022-10-22T01:14:18;100664.00;;;15.20
58929;BMP180;44713;53.378;10.022;2022-10-22T01:16:53;100668.00;;;15.10
58929;BMP180;44713;53.378;10.022;2022-10-22T01:22:31;100681.00;;;15.00
58929;BMP180;44713;53.378;10.022;2022-10-22T01:30:08;100681.00;;;14.90
58929;BMP180;44713;53.378;10.022;2022-10-22T01:32:55;100681.00;;;14.90
58929;BMP180;44713;53.378;10.022;2022-10-22T01:35:26;100682.00;;;14.90
58929;BMP180;44713;53.378;10.022;2022-10-22T01:37:55;100688.00;;;14.90
58929;BMP180;44713;53.378;10.022;2022-10-22T01:40:22;100688.00;;;14.90
58929;BMP180;44713;53.378;10.022;2022-10-22T01:42:55;100692.00;;;14.90
58929;BMP180;44713;53.378;10.022;2022-10-22T01:45:21;100690.00;;;14.80
58929;BMP180;44713;53.378;10.022;2022-10-22T01:47:56;100685.00;;;14.80
58929;BMP180;44713;53.378;10.022;2022-10-22T01:53:39;100693.00;;;14.70
58929;BMP180;44713;53.378;10.022;2022-10-22T01:56:19;100693.00;;;14.60
58929;BMP180;44713;53.378;10.022;2022-10-22T01:59:16;100684.00;;;14.50
58929;BMP180;44713;53.378;10.022;2022-10-22T02:02:16;100671.00;;;14.50
58929;BMP180;44713;53.378;10.022;2022-10-22T02:04:49;100672.00;;;14.40
58929;BMP180;44713;53.378;10.022;2022-10-22T02:07:20;100654.00;;;14.40
58929;BMP180;44713;53.378;10.022;2022-10-22T02:09:48;100660.00;;;14.40
58929;BMP180;44713;53.378;10.022;2022-10-22T02:12:17;100646.00;;;14.30
58929;BMP180;44713;53.378;10.022;2022-10-22T02:14:44;100650.00;;;14.30
58929;BMP180;44713;53.378;10.022;2022-10-22T02:17:15;100653.00;;;14.20
58929;BMP180;44713;53.378;10.022;2022-10-22T02:19:57;100661.00;;;14.20
58929;BMP180;44713;53.378;10.022;2022-10-22T02:22:24;100654.00;;;14.10
58929;BMP180;44713;53.378;10.022;2022-10-22T02:24:50;100659.00;;;14.10
58929;BMP180;44713;53.378;10.022;2022-10-22T02:30:04;100651.00;;;14.10
58929;BMP180;44713;53.378;10.022;2022-10-22T02:32:34;100653.00;;;14.20
58929;BMP180;44713;53.378;10.022;2022-10-22T02:35:04;100651.00;;;14.10
58929;BMP180;44713;53.378;10.022;2022-10-22T02:37:31;100649.00;;;14.10
58929;BMP180;44713;53.378;10.022;2022-10-22T02:39:56;100651.00;;;14.10
58929;BMP180;44713;53.378;10.022;2022-10-22T02:42:23;100653.00;;;14.10
58929;BMP180;44713;53.378;10.022;2022-10-22T02:44:49;100652.00;;;14.00
58929;BMP180;44713;53.378;10.022;2022-10-22T02:47:14;100641.00;;;14.00
58929;BMP180;44713;53.378;10.022;2022-10-22T02:49:40;100641.00;;;14.00
58929;BMP180;44713;53.378;10.022;2022-10-22T02:52:05;100647.00;;;14.00
58929;BMP180;44713;53.378;10.022;2022-10-22T02:54:30;100649.00;;;13.90
58929;BMP180;44713;53.378;10.022;2022-10-22T02:56:55;100652.00;;;13.90
58929;BMP180;44713;53.378;10.022;2022-10-22T02:59:21;100657.00;;;13.90
58929;BMP180;44713;53.378;10.022;2022-10-22T03:01:46;100658.00;;;13.90
58929;BMP180;44713;53.378;10.022;2022-10-22T03:04:11;100660.00;;;13.90
58929;BMP180;44713;53.378;10.022;2022-10-22T03:06:37;100669.00;;;13.90
58929;BMP180;44713;53.378;10.022;2022-10-22T03:09:02;100669.00;;;13.90
58929;BMP180;44713;53.378;10.022;2022-10-22T03:11:27;100678.00;;;13.90
58929;BMP180;44713;53.378;10.022;2022-10-22T03:13:53;100680.00;;;14.00
58929;BMP180;44713;53.378;10.022;2022-10-22T03:16:18;100681.00;;;13.90
58929;BMP180;44713;53.378;10.022;2022-10-22T03:18:43;100679.00;;;13.90
58929;BMP180;44713;53.378;10.022;2022-10-22T03:21:14;100676.00;;;13.80
58929;BMP180;44713;53.378;10.022;2022-10-22T03:23:43;100680.00;;;13.80
58929;BMP180;44713;53.378;10.022;2022-10-22T03:26:09;100684.00;;;13.90
58929;BMP180;44713;53.378;10.022;2022-10-22T03:28:37;100684.00;;;13.90
58929;BMP180;44713;53.378;10.022;2022-10-22T03:31:03;100680.00;;;13.80
58929;BMP180;44713;53.378;10.022;2022-10-22T03:33:28;100688.00;;;13.80
58929;BMP180;44713;53.378;10.022;2022-10-22T03:35:54;100689.00;;;13.80
58929;BMP180;44713;53.378;10.022;2022-10-22T03:38:19;100692.00;;;13.70
58929;BMP180;44713;53.378;10.022;2022-10-22T03:40:45;100700.00;;;13.80
58929;BMP180;44713;53.378;10.022;2022-10-22T03:43:10;100702.00;;;13.70
58929;BMP180;44713;53.378;10.022;2022-10-22T03:45:36;100705.00;;;13.80
58929;BMP180;44713;53.378;10.022;2022-10-22T03:48:01;100708.00;;;13.80
58929;BMP180;44713;53.378;10.022;2022-10-22T03:50:26;100706.00;;;13.80
58929;BMP180;44713;53.378;10.022;2022-10-22T03:52:52;100712.00;;;13.80
58929;BMP180;44713;53.378;10.022;2022-10-22T03:55:17;100717.00;;;13.80
58929;BMP180;44713;53.378;10.022;2022-10-22T03:57:43;100724.00;;;13.80
58929;BMP180;44713;53.378;10.022;2022-10-22T04:00:09;100712.00;;;13.70
58929;BMP180;44713;53.378;10.022;2022-10-22T04:02:35;100715.00;;;13.70
58929;BMP180;44713;53.378;10.022;2022-10-22T04:05:01;100710.00;;;13.70
58929;BMP180;44713;53.378;10.022;2022-10-22T04:07:26;100700.00;;;13.70
58929;BMP180;44713;53.378;10.022;2022-10-22T04:09:52;100708.00;;;13.70
58929;BMP180;44713;53.378;10.022;2022-10-22T04:12:17;100694.00;;;13.70
58929;BMP180;44713;53.378;10.022;2022-10-22T04:14:43;100710.00;;;13.70
58929;BMP180;44713;53.378;10.022;2022-10-22T04:17:08;100712.00;;;13.70
58929;BMP180;44713;53.378;10.022;2022-10-22T04:19:33;100704.00;;;13.70
58929;BMP180;44713;53.378;10.022;2022-10-22T04:21:59;100704.00;;;13.60
58929;BMP180;44713;53.378;10.022;2022-10-22T04:24:25;100716.00;;;13.70
58929;BMP180;44713;53.378;10.022;2022-10-22T04:26:53;100716.00;;;13.60
58929;BMP180;44713;53.378;10.022;2022-10-22T04:29:18;100721.00;;;13.60
58929;BMP180;44713;53.378;10.022;2022-10-22T04:31:43;100718.00;;;13.60
58929;BMP180;44713;53.378;10.022;2022-10-22T04:34:09;100724.00;;;13.60
58929;BMP180;44713;53.378;10.022;2022-10-22T04:36:34;100725.00;;;13.50
58929;BMP180;44713;53.378;10.022;2022-10-22T04:39:00;100732.00;;;13.50
58929;BMP180;44713;53.378;10.022;2022-10-22T04:41:28;100727.00;;;13.50
58929;BMP180;44713;53.378;10.022;2022-10-22T04:43:55;100722.00;;;13.50
58929;BMP180;44713;53.378;10.022;2022-10-22T04:46:21;100719.00;;;13.50
58929;BMP180;44713;53.378;10.022;2022-10-22T04:48:47;100717.00;;;13.50
58929;BMP180;44713;53.378;10.022;2022-10-22T04:51:16;100726.00;;;13.50
58929;BMP180;44713;53.378;10.022;2022-10-22T04:53:42;100725.00;;;13.40
58929;BMP180;44713;53.378;10.022;2022-10-22T04:56:10;100731.00;;;13.40
58929;BMP180;44713;53.378;10.022;2022-10-22T04:58:36;100731.00;;;13.40
58929;BMP180;44713;53.378;10.022;2022-10-22T05:01:09;100728.00;;;13.40
58929;BMP180;44713;53.378;10.022;2022-10-22T05:03:35;100734.00;;;13.40
58929;BMP180;44713;53.378;10.022;2022-10-22T05:06:01;100737.00;;;13.40
58929;BMP180;44713;53.378;10.022;2022-10-22T05:08:26;100736.00;;;13.30
58929;BMP180;44713;53.378;10.022;2022-10-22T05:10:51;100733.00;;;13.40
58929;BMP180;44713;53.378;10.022;2022-10-22T05:13:17;100741.00;;;13.30
58929;BMP180;44713;53.378;10.022;2022-10-22T05:15:42;100737.00;;;13.30
58929;BMP180;44713;53.378;10.022;2022-10-22T05:18:07;100738.00;;;13.30
58929;BMP180;44713;53.378;10.022;2022-10-22T05:20:32;100736.00;;;13.40
58929;BMP180;44713;53.378;10.022;2022-10-22T05:22:58;100745.00;;;13.30
58929;BMP180;44713;53.378;10.022;2022-10-22T05:25:23;100744.00;;;13.30
58929;BMP180;44713;53.378;10.022;2022-10-22T05:27:48;100744.00;;;13.30
58929;BMP180;44713;53.378;10.022;2022-10-22T05:30:14;100748.00;;;13.30
58929;BMP180;44713;53.378;10.022;2022-10-22T05:32:40;100749.00;;;13.20
58929;BMP180;44713;53.378;10.022;2022-10-22T05:35:05;100744.00;;;13.30
58929;BMP180;44713;53.378;10.022;2022-10-22T05:37:30;100755.00;;;13.20
58929;BMP180;44713;53.378;10.022;2022-10-22T05:39:56;100743.00;;;13.30
58929;BMP180;44713;53.378;10.022;2022-10-22T05:42:21;100744.00;;;13.20
58929;BMP180;44713;53.378;10.022;2022-10-22T05:44:47;100742.00;;;13.20
58929;BMP180;44713;53.378;10.022;2022-10-22T05:47:12;100739.00;;;13.30
58929;BMP180;44713;53.378;10.022;2022-10-22T05:49:37;100740.00;;;13.20
58929;BMP180;44713;53.378;10.022;2022-10-22T05:52:03;100744.00;;;13.20
58929;BMP180;44713;53.378;10.022;2022-10-22T05:54:28;100744.00;;;13.20
58929;BMP180;44713;53.378;10.022;2022-10-22T05:56:53;100741.00;;;13.20
58929;BMP180;44713;53.378;10.022;2022-10-22T05:59:19;100745.00;;;13.20
58929;BMP180;44713;53.378;10.022;2022-10-22T06:01:45;100747.00;;;13.20
58929;BMP180;44713;53.378;10.022;2022-10-22T06:04:11;100752.00;;;13.20
58929;BMP180;44713;53.378;10.022;2022-10-22T06:06:45;100744.00;;;13.20
58929;BMP180;44713;53.378;10.022;2022-10-22T06:09:22;100761.00;;;13.20
58929;BMP180;44713;53.378;10.022;2022-10-22T06:11:49;100760.00;;;13.20
58929;BMP180;44713;53.378;10.022;2022-10-22T06:14:15;100760.00;;;13.20
58929;BMP180;44713;53.378;10.022;2022-10-22T06:16:41;100767.00;;;13.10
58929;BMP180;44713;53.378;10.022;2022-10-22T06:19:09;100761.00;;;13.10
58929;BMP180;44713;53.378;10.022;2022-10-22T06:21:35;100762.00;;;13.10
58929;BMP180;44713;53.378;10.022;2022-10-22T06:24:00;100764.00;;;13.10
58929;BMP180;44713;53.378;10.022;2022-10-22T06:26:26;100770.00;;;13.20
58929;BMP180;44713;53.378;10.022;2022-10-22T06:28:53;100769.00;;;13.20
58929;BMP180;44713;53.378;10.022;2022-10-22T06:31:20;100769.00;;;13.10
58929;BMP180;44713;53.378;10.022;2022-10-22T06:33:45;100775.00;;;13.10
58929;BMP180;44713;53.378;10.022;2022-10-22T06:36:16;100772.00;;;13.10
58929;BMP180;44713;53.378;10.022;2022-10-22T06:38:41;100779.00;;;13.20
58929;BMP180;44713;53.378;10.022;2022-10-22T06:41:09;100774.00;;;13.20
58929;BMP180;44713;53.378;10.022;2022-10-22T06:43:35;100782.00;;;13.20
58929;BMP180;44713;53.378;10.022;2022-10-22T06:46:02;100786.00;;;13.20
58929;BMP180;44713;53.378;10.022;2022-10-22T06:48:29;100782.00;;;13.10
58929;BMP180;44713;53.378;10.022;2022-10-22T06:50:54;100780.00;;;13.10
58929;BMP180;44713;53.378;10.022;2022-10-22T06:53:20;100779.00;;;13.20
58929;BMP180;44713;53.378;10.022;2022-10-22T06:55:45;100790.00;;;13.10
58929;BMP180;44713;53.378;10.022;2022-10-22T06:58:10;100796.00;;;13.20
58929;BMP180;44713;53.378;10.022;2022-10-22T07:00:36;100792.00;;;13.20
58929;BMP180;44713;53.378;10.022;2022-10-22T07:03:01;100794.00;;;13.30
58929;BMP180;44713;53.378;10.022;2022-10-22T07:05:26;100798.00;;;13.20
58929;BMP180;44713;53.378;10.022;2022-10-22T07:07:52;100810.00;;;13.20
58929;BMP180;44713;53.378;10.022;2022-10-22T07:10:17;100811.00;;;13.20
58929;BMP180;44713;53.378;10.022;2022-10-22T07:12:42;100822.00;;;13.30
58929;BMP180;44713;53.378;10.022;2022-10-22T07:15:08;100828.00;;;13.30
58929;BMP180;44713;53.378;10.022;2022-10-22T07:17:33;100824.00;;;13.30
58929;BMP180;44713;53.378;10.022;2022-10-22T07:19:59;100829.00;;;13.30
58929;BMP180;44713;53.378;10.022;2022-10-22T07:22:24;100820.00;;;13.40
58929;BMP180;44713;53.378;10.022;2022-10-22T07:24:49;100825.00;;;13.40
58929;BMP180;44713;53.378;10.022;2022-10-22T07:27:15;100830.00;;;13.50
58929;BMP180;44713;53.378;10.022;2022-10-22T07:29:40;100829.00;;;13.50
58929;BMP180;44713;53.378;10.022;2022-10-22T07:32:05;100830.00;;;13.60
58929;BMP180;44713;53.378;10.022;2022-10-22T07:34:31;100825.00;;;13.60
58929;BMP180;44713;53.378;10.022;2022-10-22T07:36:56;100844.00;;;13.60
58929;BMP180;44713;53.378;10.022;2022-10-22T07:39:22;100843.00;;;13.60
58929;BMP180;44713;53.378;10.022;2022-10-22T07:41:49;100838.00;;;13.70
58929;BMP180;44713;53.378;10.022;2022-10-22T07:44:15;100855.00;;;13.70
58929;BMP180;44713;53.378;10.022;2022-10-22T07:46:40;100858.00;;;13.80
58929;BMP180;44713;53.378;10.022;2022-10-22T07:49:05;100847.00;;;13.80
58929;BMP180;44713;53.378;10.022;2022-10-22T07:51:31;100847.00;;;13.80
58929;BMP180;44713;53.378;10.022;2022-10-22T07:53:56;100860.00;;;13.80
58929;BMP180;44713;53.378;10.022;2022-10-22T07:56:21;100848.00;;;13.80
58929;BMP180;44713;53.378;10.022;2022-10-22T07:58:47;100869.00;;;13.80
58929;BMP180;44713;53.378;10.022;2022-10-22T08:01:12;100863.00;;;13.90
58929;BMP180;44713;53.378;10.022;2022-10-22T08:03:37;100862.00;;;13.90
58929;BMP180;44713;53.378;10.022;2022-10-22T08:06:03;100868.00;;;13.90
58929;BMP180;44713;53.378;10.022;2022-10-22T08:08:28;100866.00;;;14.00
58929;BMP180;44713;53.378;10.022;2022-10-22T08:10:56;100874.00;;;14.00
58929;BMP180;44713;53.378;10.022;2022-10-22T08:13:22;100872.00;;;14.00
58929;BMP180;44713;53.378;10.022;2022-10-22T08:15:48;100875.00;;;14.00
58929;BMP180;44713;53.378;10.022;2022-10-22T08:18:13;100887.00;;;14.10
58929;BMP180;44713;53.378;10.022;2022-10-22T08:20:39;100882.00;;;14.10
58929;BMP180;44713;53.378;10.022;2022-10-22T08:23:05;100883.00;;;14.20
58929;BMP180;44713;53.378;10.022;2022-10-22T08:25:31;100881.00;;;14.20
58929;BMP180;44713;53.378;10.022;2022-10-22T08:27:56;100895.00;;;14.30
58929;BMP180;44713;53.378;10.022;2022-10-22T08:30:22;100895.00;;;14.40
58929;BMP180;44713;53.378;10.022;2022-10-22T08:32:47;100893.00;;;14.40
58929;BMP180;44713;53.378;10.022;2022-10-22T08:35:13;100896.00;;;14.50
58929;BMP180;44713;53.378;10.022;2022-10-22T08:37:38;100901.00;;;14.60
58929;BMP180;44713;53.378;10.022;2022-10-22T08:40:04;100895.00;;;14.60
58929;BMP180;44713;53.378;10.022;2022-10-22T08:45:16;100901.00;;;14.80
58929;BMP180;44713;53.378;10.022;2022-10-22T08:48:39;100900.00;;;14.80
58929;BMP180;44713;53.378;10.022;2022-10-22T08:50:45;100906.00;;;14.90
58929;BMP180;44713;53.378;10.022;2022-10-22T08:53:14;100906.00;;;14.90
58929;BMP180;44713;53.378;10.022;2022-10-22T08:55:39;100907.00;;;15.00
58929;BMP180;44713;53.378;10.022;2022-10-22T09:00:58;100908.00;;;15.20
58929;BMP180;44713;53.378;10.022;2022-10-22T09:03:42;100904.00;;;15.30
58929;BMP180;44713;53.378;10.022;2022-10-22T09:06:12;100908.00;;;15.40
58929;BMP180;44713;53.378;10.022;2022-10-22T09:08:39;100908.00;;;15.40
58929;BMP180;44713;53.378;10.022;2022-10-22T09:13:38;100912.00;;;15.60
58929;BMP180;44713;53.378;10.022;2022-10-22T09:16:15;100909.00;;;15.70
58929;BMP180;44713;53.378;10.022;2022-10-22T09:21:49;100909.00;;;15.90
58929;BMP180;44713;53.378;10.022;2022-10-22T09:24:34;100904.00;;;16.00
58929;BMP180;44713;53.378;10.022;2022-10-22T09:27:01;100912.00;;;16.10
58929;BMP180;44713;53.378;10.022;2022-10-22T09:29:31;100910.00;;;16.10
58929;BMP180;44713;53.378;10.022;2022-10-22T09:31:57;100903.00;;;16.20
58929;BMP180;44713;53.378;10.022;2022-10-22T09:34:22;100908.00;;;16.30
58929;BMP180;44713;53.378;10.022;2022-10-22T09:36:57;100911.00;;;16.40
58929;BMP180;44713;53.378;10.022;2022-10-22T09:39:27;100912.00;;;16.40
58929;BMP180;44713;53.378;10.022;2022-10-22T09:41:52;100917.00;;;16.50
58929;BMP180;44713;53.378;10.022;2022-10-22T09:44:18;100921.00;;;16.60
58929;BMP180;44713;53.378;10.022;2022-10-22T09:46:44;100915.00;;;16.60
58929;BMP180;44713;53.378;10.022;2022-10-22T09:49:18;100919.00;;;16.80
58929;BMP180;44713;53.378;10.022;2022-10-22T09:51:54;100912.00;;;16.70
58929;BMP180;44713;53.378;10.022;2022-10-22T09:54:25;100906.00;;;16.80
58929;BMP180;44713;53.378;10.022;2022-10-22T09:57:16;100903.00;;;16.90
58929;BMP180;44713;53.378;10.022;2022-10-22T09:59:43;100908.00;;;17.00
58929;BMP180;44713;53.378;10.022;2022-10-22T10:02:20;100901.00;;;17.00
58929;BMP180;44713;53.378;10.022;2022-10-22T10:04:48;100908.00;;;17.00
58929;BMP180;44713;53.378;10.022;2022-10-22T10:07:17;100918.00;;;17.10
58929;BMP180;44713;53.378;10.022;2022-10-22T10:09:42;100911.00;;;17.30
58929;BMP180;44713;53.378;10.022;2022-10-22T10:17:39;100918.00;;;17.30
58929;BMP180;44713;53.378;10.022;2022-10-22T10:25:30;100915.00;;;17.60
58929;BMP180;44713;53.378;10.022;2022-10-22T10:31:27;100915.00;;;17.70
58929;BMP180;44713;53.378;10.022;2022-10-22T10:34:38;100913.00;;;17.80
58929;BMP180;44713;53.378;10.022;2022-10-22T10:37:19;100918.00;;;18.00
58929;BMP180;44713;53.378;10.022;2022-10-22T10:42:57;100913.00;;;18.30
58929;BMP180;44713;53.378;10.022;2022-10-22T10:54:49;100924.00;;;18.90
58929;BMP180;44713;53.378;10.022;2022-10-22T10:56:52;100918.00;;;19.10
58929;BMP180;44713;53.378;10.022;2022-10-22T11:04:53;100923.00;;;19.30
58929;BMP180;44713;53.378;10.022;2022-10-22T11:07:37;100917.00;;;19.30
58929;BMP180;44713;53.378;10.022;2022-10-22T11:10:25;100918.00;;;19.40
58929;BMP180;44713;53.378;10.022;2022-10-22T11:12:56;100914.00;;;19.50
58929;BMP180;44713;53.378;10.022;2022-10-22T11:15:36;100920.00;;;19.40
58929;BMP180;44713;53.378;10.022;2022-10-22T11:18:40;100919.00;;;19.60
58929;BMP180;44713;53.378;10.022;2022-10-22T11:23:47;100917.00;;;19.60
58929;BMP180;44713;53.378;10.022;2022-10-22T11:26:28;100921.00;;;19.60
58929;BMP180;44713;53.378;10.022;2022-10-22T11:28:56;100914.00;;;19.50
58929;BMP180;44713;53.378;10.022;2022-10-22T11:31:23;100914.00;;;19.60
58929;BMP180;44713;53.378;10.022;2022-10-22T11:34:05;100915.00;;;19.70
58929;BMP180;44713;53.378;10.022;2022-10-22T11:36:37;100918.00;;;19.70
58929;BMP180;44713;53.378;10.022;2022-10-22T11:39:03;100921.00;;;19.60
58929;BMP180;44713;53.378;10.022;2022-10-22T11:41:31;100921.00;;;19.50
58929;BMP180;44713;53.378;10.022;2022-10-22T11:47:31;100913.00;;;19.90
58929;BMP180;44713;53.378;10.022;2022-10-22T11:49:54;100921.00;;;20.20
58929;BMP180;44713;53.378;10.022;2022-10-22T11:54:56;100915.00;;;20.20
58929;BMP180;44713;53.378;10.022;2022-10-22T11:57:48;100921.00;;;20.10
58929;BMP180;44713;53.378;10.022;2022-10-22T12:03:17;100918.00;;;20.20
58929;BMP180;44713;53.378;10.022;2022-10-22T12:05:44;100915.00;;;20.20
58929;BMP180;44713;53.378;10.022;2022-10-22T12:08:17;100922.00;;;20.50
58929;BMP180;44713;53.378;10.022;2022-10-22T12:10:48;100922.00;;;20.50
58929;BMP180;44713;53.378;10.022;2022-10-22T12:13:24;100923.00;;;20.60
58929;BMP180;44713;53.378;10.022;2022-10-22T12:15:53;100921.00;;;20.60
58929;BMP180;44713;53.378;10.022;2022-10-22T12:18:24;100923.00;;;20.40
58929;BMP180;44713;53.378;10.022;2022-10-22T12:20:52;100934.00;;;20.30
58929;BMP180;44713;53.378;10.022;2022-10-22T12:23:20;100931.00;;;20.00
58929;BMP180;44713;53.378;10.022;2022-10-22T12:25:48;100935.00;;;19.70
58929;BMP180;44713;53.378;10.022;2022-10-22T12:28:14;100948.00;;;19.50
58929;BMP180;44713;53.378;10.022;2022-10-22T12:30:40;100944.00;;;19.30
58929;BMP180;44713;53.378;10.022;2022-10-22T12:33:15;100939.00;;;19.10
58929;BMP180;44713;53.378;10.022;2022-10-22T12:35:43;100953.00;;;18.90
58929;BMP180;44713;53.378;10.022;2022-10-22T12:38:15;100945.00;;;18.90
58929;BMP180;44713;53.378;10.022;2022-10-22T12:40:40;100948.00;;;19.00
58929;BMP180;44713;53.378;10.022;2022-10-22T12:43:13;100949.00;;;19.20
58929;BMP180;44713;53.378;10.022;2022-10-22T12:45:40;100948.00;;;19.30
58929;BMP180;44713;53.378;10.022;2022-10-22T12:48:15;100942.00;;;19.30
58929;BMP180;44713;53.378;10.022;2022-10-22T12:50:44;100950.00;;;19.30
58929;BMP180;44713;53.378;10.022;2022-10-22T12:55:45;100950.00;;;19.30
58929;BMP180;44713;53.378;10.022;2022-10-22T12:58:16;100947.00;;;19.30
58929;BMP180;44713;53.378;10.022;2022-10-22T13:00:41;100953.00;;;19.20
58929;BMP180;44713;53.378;10.022;2022-10-22T13:04:01;100947.00;;;19.30
58929;BMP180;44713;53.378;10.022;2022-10-22T13:06:13;100952.00;;;19.30
58929;BMP180;44713;53.378;10.022;2022-10-22T13:08:39;100948.00;;;19.40
58929;BMP180;44713;53.378;10.022;2022-10-22T13:11:09;100945.00;;;19.30
58929;BMP180;44713;53.378;10.022;2022-10-22T13:16:14;100944.00;;;19.40
58929;BMP180;44713;53.378;10.022;2022-10-22T13:18:40;100950.00;;;19.40
58929;BMP180;44713;53.378;10.022;2022-10-22T13:21:21;100939.00;;;19.60
58929;BMP180;44713;53.378;10.022;2022-10-22T13:23:58;100939.00;;;19.40
58929;BMP180;44713;53.378;10.022;2022-10-22T13:26:31;100941.00;;;19.50
58929;BMP180;44713;53.378;10.022;2022-10-22T13:28:57;100944.00;;;19.60
58929;BMP180;44713;53.378;10.022;2022-10-22T13:31:30;100939.00;;;19.70
58929;BMP180;44713;53.378;10.022;2022-10-22T13:34:02;100941.00;;;19.90
58929;BMP180;44713;53.378;10.022;2022-10-22T13:36:31;100941.00;;;20.00
58929;BMP180;44713;53.378;10.022;2022-10-22T13:38:56;100936.00;;;20.00
58929;BMP180;44713;53.378;10.022;2022-10-22T13:41:27;100938.00;;;20.00
58929;BMP180;44713;53.378;10.022;2022-10-22T13:43:53;100938.00;;;19.80
58929;BMP180;44713;53.378;10.022;2022-10-22T13:46:20;100939.00;;;19.80
58929;BMP180;44713;53.378;10.022;2022-10-22T13:48:47;100946.00;;;19.70
58929;BMP180;44713;53.378;10.022;2022-10-22T13:51:16;100944.00;;;19.60
58929;BMP180;44713;53.378;10.022;2022-10-22T13:53:42;100947.00;;;19.40
58929;BMP180;44713;53.378;10.022;2022-10-22T13:56:15;100940.00;;;19.30
58929;BMP180;44713;53.378;10.022;2022-10-22T13:58:42;100944.00;;;19.20
58929;BMP180;44713;53.378;10.022;2022-10-22T14:01:20;100948.00;;;19.10
58929;BMP180;44713;53.378;10.022;2022-10-22T14:03:47;100946.00;;;19.10
58929;BMP180;44713;53.378;10.022;2022-10-22T14:06:14;100945.00;;;19.20
58929;BMP180;44713;53.378;10.022;2022-10-22T14:08:41;100950.00;;;19.50
58929;BMP180;44713;53.378;10.022;2022-10-22T14:11:09;100954.00;;;19.60
58929;BMP180;44713;53.378;10.022;2022-10-22T14:13:35;100952.00;;;19.70
58929;BMP180;44713;53.378;10.022;2022-10-22T14:16:00;100947.00;;;19.60
58929;BMP180;44713;53.378;10.022;2022-10-22T14:18:28;100951.00;;;19.50
58929;BMP180;44713;53.378;10.022;2022-10-22T14:20:58;100945.00;;;19.40
58929;BMP180;44713;53.378;10.022;2022-10-22T14:23:26;100953.00;;;19.40
58929;BMP180;44713;53.378;10.022;2022-10-22T14:25:52;100947.00;;;19.40
58929;BMP180;44713;53.378;10.022;2022-10-22T14:28:18;100952.00;;;19.40
58929;BMP180;44713;53.378;10.022;2022-10-22T14:30:45;100953.00;;;19.40
58929;BMP180;44713;53.378;10.022;2022-10-22T14:33:17;100949.00;;;19.50
58929;BMP180;44713;53.378;10.022;2022-10-22T14:35:43;100950.00;;;19.30
58929;BMP180;44713;53.378;10.022;2022-10-22T14:38:09;100955.00;;;19.30
58929;BMP180;44713;53.378;10.022;2022-10-22T14:40:35;100958.00;;;19.30
58929;BMP180;44713;53.378;10.022;2022-10-22T14:43:03;100951.00;;;19.30
58929;BMP180;44713;53.378;10.022;2022-10-22T14:45:29;100950.00;;;19.30
58929;BMP180;44713;53.378;10.022;2022-10-22T14:47:54;100959.00;;;19.20
58929;BMP180;44713;53.378;10.022;2022-10-22T14:50:20;100959.00;;;19.20
58929;BMP180;44713;53.378;10.022;2022-10-22T14:52:46;100963.00;;;19.20
58929;BMP180;44713;53.378;10.022;2022-10-22T14:55:13;100965.00;;;19.00
58929;BMP180;44713;53.378;10.022;2022-10-22T14:57:40;100975.00;;;18.80
58929;BMP180;44713;53.378;10.022;2022-10-22T15:00:08;100970.00;;;18.70
58929;BMP180;44713;53.378;10.022;2022-10-22T15:02:34;100973.00;;;18.60
58929;BMP180;44713;53.378;10.022;2022-10-22T15:04:59;100974.00;;;18.60
58929;BMP180;44713;53.378;10.022;2022-10-22T15:07:24;100971.00;;;18.50
58929;BMP180;44713;53.378;10.022;2022-10-22T15:09:52;100976.00;;;18.40